sensor_id;sensor_type;location;lat;lon;timestamp;P1;durP1;ratioP1;P2;durP2;ratioP2
73456;SDS011;61691;53.072;6.582;2023-06-22T00:00:57;27.08;;;14.77;;
73456;SDS011;61691;53.072;6.582;2023-06-22T00:03:25;23.58;;;13.07;;
73456;SDS011;61691;53.072;6.582;2023-06-22T00:05:52;23.80;;;13.75;;
73456;SDS011;61691;53.072;6.582;2023-06-22T00:08:19;24.75;;;13.88;;
73456;SDS011;61691;53.072;6.582;2023-06-22T00:10:46;25.27;;;14.90;;
73456;SDS011;61691;53.072;6.582;2023-06-22T00:13:13;29.90;;;14.65;;
73456;SDS011;61691;53.072;6.582;2023-06-22T00:15:40;24.52;;;14.70;;
73456;SDS011;61691;53.072;6.582;2023-06-22T00:18:08;25.23;;;13.95;;
73456;SDS011;61691;53.072;6.582;2023-06-22T00:20:36;25.45;;;14.68;;
73456;SDS011;61691;53.072;6.582;2023-06-22T00:23:04;27.58;;;14.80;;
73456;SDS011;61691;53.072;6.582;2023-06-22T00:25:35;25.75;;;15.00;;
73456;SDS011;61691;53.072;6.582;2023-06-22T00:28:04;28.02;;;15.27;;
73456;SDS011;61691;53.072;6.582;2023-06-22T00:33:34;27.50;;;16.10;;
73456;SDS011;61691;53.072;6.582;2023-06-22T00:36:01;28.33;;;16.52;;
73456;SDS011;61691;53.072;6.582;2023-06-22T00:38:29;27.35;;;16.60;;
73456;SDS011;61691;53.072;6.582;2023-06-22T00:40:56;26.17;;;15.95;;
73456;SDS011;61691;53.072;6.582;2023-06-22T00:43:23;28.52;;;16.95;;
73456;SDS011;61691;53.072;6.582;2023-06-22T00:45:49;29.25;;;17.63;;
73456;SDS011;61691;53.072;6.582;2023-06-22T00:48:16;29.17;;;15.98;;
73456;SDS011;61691;53.072;6.582;2023-06-22T00:50:43;26.45;;;17.02;;
73456;SDS011;61691;53.072;6.582;2023-06-22T00:53:10;29.73;;;17.70;;
73456;SDS011;61691;53.072;6.582;2023-06-22T00:55:38;27.10;;;16.38;;
73456;SDS011;61691;53.072;6.582;2023-06-22T00:58:17;27.95;;;16.85;;
73456;SDS011;61691;53.072;6.582;2023-06-22T01:00:48;25.45;;;15.75;;
73456;SDS011;61691;53.072;6.582;2023-06-22T01:03:15;26.70;;;17.48;;
73456;SDS011;61691;53.072;6.582;2023-06-22T01:05:43;31.75;;;17.55;;
73456;SDS011;61691;53.072;6.582;2023-06-22T01:13:57;29.52;;;17.42;;
73456;SDS011;61691;53.072;6.582;2023-06-22T01:16:31;25.45;;;15.65;;
73456;SDS011;61691;53.072;6.582;2023-06-22T01:19:07;26.20;;;15.82;;
73456;SDS011;61691;53.072;6.582;2023-06-22T01:21:44;26.65;;;15.73;;
73456;SDS011;61691;53.072;6.582;2023-06-22T01:24:18;28.88;;;16.45;;
73456;SDS011;61691;53.072;6.582;2023-06-22T01:29:55;25.77;;;13.63;;
73456;SDS011;61691;53.072;6.582;2023-06-22T01:32:32;25.83;;;14.65;;
73456;SDS011;61691;53.072;6.582;2023-06-22T01:35:01;26.90;;;15.10;;
73456;SDS011;61691;53.072;6.582;2023-06-22T01:37:30;25.43;;;15.47;;
73456;SDS011;61691;53.072;6.582;2023-06-22T01:39:59;26.63;;;15.32;;
73456;SDS011;61691;53.072;6.582;2023-06-22T01:42:27;28.10;;;16.10;;
73456;SDS011;61691;53.072;6.582;2023-06-22T01:44:55;26.42;;;16.40;;
73456;SDS011;61691;53.072;6.582;2023-06-22T01:47:23;29.00;;;16.80;;
73456;SDS011;61691;53.072;6.582;2023-06-22T01:49:51;29.70;;;17.38;;
73456;SDS011;61691;53.072;6.582;2023-06-22T01:52:19;26.15;;;16.33;;
73456;SDS011;61691;53.072;6.582;2023-06-22T01:54:47;25.83;;;16.17;;
73456;SDS011;61691;53.072;6.582;2023-06-22T01:57:14;28.60;;;16.60;;
73456;SDS011;61691;53.072;6.582;2023-06-22T02:02:23;29.60;;;16.85;;
73456;SDS011;61691;53.072;6.582;2023-06-22T02:04:57;27.63;;;16.47;;
73456;SDS011;61691;53.072;6.582;2023-06-22T02:07:28;27.58;;;17.10;;
73456;SDS011;61691;53.072;6.582;2023-06-22T02:09:59;28.23;;;16.67;;
73456;SDS011;61691;53.072;6.582;2023-06-22T02:12:28;24.77;;;15.18;;
73456;SDS011;61691;53.072;6.582;2023-06-22T02:14:56;27.90;;;16.13;;
73456;SDS011;61691;53.072;6.582;2023-06-22T02:17:24;28.27;;;15.80;;
73456;SDS011;61691;53.072;6.582;2023-06-22T02:19:53;27.13;;;16.33;;
73456;SDS011;61691;53.072;6.582;2023-06-22T02:22:20;24.95;;;15.27;;
73456;SDS011;61691;53.072;6.582;2023-06-22T02:24:47;25.42;;;14.80;;
73456;SDS011;61691;53.072;6.582;2023-06-22T02:27:13;27.20;;;16.15;;
73456;SDS011;61691;53.072;6.582;2023-06-22T02:29:40;26.20;;;14.75;;
73456;SDS011;61691;53.072;6.582;2023-06-22T02:32:07;26.65;;;15.48;;
73456;SDS011;61691;53.072;6.582;2023-06-22T02:34:34;28.90;;;16.08;;
73456;SDS011;61691;53.072;6.582;2023-06-22T02:37:03;26.92;;;16.40;;
73456;SDS011;61691;53.072;6.582;2023-06-22T02:39:31;27.35;;;16.35;;
73456;SDS011;61691;53.072;6.582;2023-06-22T02:41:58;25.55;;;15.63;;
73456;SDS011;61691;53.072;6.582;2023-06-22T02:44:24;28.40;;;17.08;;
73456;SDS011;61691;53.072;6.582;2023-06-22T02:46:51;25.98;;;16.33;;
73456;SDS011;61691;53.072;6.582;2023-06-22T02:49:21;28.35;;;17.55;;
73456;SDS011;61691;53.072;6.582;2023-06-22T02:51:49;26.65;;;17.33;;
73456;SDS011;61691;53.072;6.582;2023-06-22T02:54:16;25.65;;;16.08;;
73456;SDS011;61691;53.072;6.582;2023-06-22T02:56:43;26.55;;;16.25;;
73456;SDS011;61691;53.072;6.582;2023-06-22T02:59:10;25.63;;;16.65;;
73456;SDS011;61691;53.072;6.582;2023-06-22T03:01:37;29.30;;;16.83;;
73456;SDS011;61691;53.072;6.582;2023-06-22T03:04:07;27.25;;;16.77;;
73456;SDS011;61691;53.072;6.582;2023-06-22T03:06:35;26.05;;;16.02;;
73456;SDS011;61691;53.072;6.582;2023-06-22T03:09:03;24.73;;;15.82;;
73456;SDS011;61691;53.072;6.582;2023-06-22T03:11:32;25.35;;;16.63;;
73456;SDS011;61691;53.072;6.582;2023-06-22T03:14:02;25.15;;;15.82;;
73456;SDS011;61691;53.072;6.582;2023-06-22T03:16:29;24.53;;;15.53;;
73456;SDS011;61691;53.072;6.582;2023-06-22T03:18:56;27.05;;;17.42;;
73456;SDS011;61691;53.072;6.582;2023-06-22T03:21:23;25.60;;;17.23;;
73456;SDS011;61691;53.072;6.582;2023-06-22T03:23:50;26.25;;;17.85;;
73456;SDS011;61691;53.072;6.582;2023-06-22T03:26:17;26.67;;;17.73;;
73456;SDS011;61691;53.072;6.582;2023-06-22T03:28:44;27.50;;;17.98;;
73456;SDS011;61691;53.072;6.582;2023-06-22T03:31:11;27.98;;;18.48;;
73456;SDS011;61691;53.072;6.582;2023-06-22T03:33:38;29.98;;;19.75;;
73456;SDS011;61691;53.072;6.582;2023-06-22T03:36:05;28.83;;;19.33;;
73456;SDS011;61691;53.072;6.582;2023-06-22T03:38:32;29.58;;;19.48;;
73456;SDS011;61691;53.072;6.582;2023-06-22T03:40:59;31.85;;;20.25;;
73456;SDS011;61691;53.072;6.582;2023-06-22T03:43:25;31.23;;;20.33;;
73456;SDS011;61691;53.072;6.582;2023-06-22T03:45:52;30.45;;;21.17;;
73456;SDS011;61691;53.072;6.582;2023-06-22T03:48:19;29.15;;;19.85;;
73456;SDS011;61691;53.072;6.582;2023-06-22T03:50:46;29.45;;;20.00;;
73456;SDS011;61691;53.072;6.582;2023-06-22T03:53:13;27.58;;;18.88;;
73456;SDS011;61691;53.072;6.582;2023-06-22T03:55:49;30.00;;;21.50;;
73456;SDS011;61691;53.072;6.582;2023-06-22T03:58:19;32.30;;;21.88;;
73456;SDS011;61691;53.072;6.582;2023-06-22T04:00:50;34.08;;;23.77;;
73456;SDS011;61691;53.072;6.582;2023-06-22T04:03:18;32.20;;;22.55;;
73456;SDS011;61691;53.072;6.582;2023-06-22T04:05:46;32.28;;;22.40;;
73456;SDS011;61691;53.072;6.582;2023-06-22T04:08:13;33.25;;;24.10;;
73456;SDS011;61691;53.072;6.582;2023-06-22T04:10:40;30.67;;;21.75;;
73456;SDS011;61691;53.072;6.582;2023-06-22T04:13:07;32.72;;;23.73;;
73456;SDS011;61691;53.072;6.582;2023-06-22T04:15:34;30.42;;;22.05;;
73456;SDS011;61691;53.072;6.582;2023-06-22T04:18:01;35.03;;;23.40;;
73456;SDS011;61691;53.072;6.582;2023-06-22T04:20:28;30.13;;;21.42;;
73456;SDS011;61691;53.072;6.582;2023-06-22T04:22:55;30.58;;;21.70;;
73456;SDS011;61691;53.072;6.582;2023-06-22T04:25:22;29.40;;;19.85;;
73456;SDS011;61691;53.072;6.582;2023-06-22T04:27:50;28.95;;;19.90;;
73456;SDS011;61691;53.072;6.582;2023-06-22T04:30:17;30.77;;;19.67;;
73456;SDS011;61691;53.072;6.582;2023-06-22T04:32:44;27.00;;;18.65;;
73456;SDS011;61691;53.072;6.582;2023-06-22T04:35:11;26.65;;;18.08;;
73456;SDS011;61691;53.072;6.582;2023-06-22T04:37:38;28.17;;;19.63;;
73456;SDS011;61691;53.072;6.582;2023-06-22T04:40:06;27.92;;;18.35;;
73456;SDS011;61691;53.072;6.582;2023-06-22T04:42:37;25.40;;;16.73;;
73456;SDS011;61691;53.072;6.582;2023-06-22T04:45:05;27.58;;;19.40;;
73456;SDS011;61691;53.072;6.582;2023-06-22T04:47:32;28.30;;;19.10;;
73456;SDS011;61691;53.072;6.582;2023-06-22T04:49:59;28.60;;;18.50;;
73456;SDS011;61691;53.072;6.582;2023-06-22T04:52:26;27.90;;;19.15;;
73456;SDS011;61691;53.072;6.582;2023-06-22T04:54:53;26.23;;;17.27;;
73456;SDS011;61691;53.072;6.582;2023-06-22T04:57:23;27.02;;;18.50;;
73456;SDS011;61691;53.072;6.582;2023-06-22T04:59:58;24.75;;;16.70;;
73456;SDS011;61691;53.072;6.582;2023-06-22T05:02:38;25.90;;;18.45;;
73456;SDS011;61691;53.072;6.582;2023-06-22T05:05:06;26.23;;;18.05;;
73456;SDS011;61691;53.072;6.582;2023-06-22T05:07:34;26.50;;;17.23;;
73456;SDS011;61691;53.072;6.582;2023-06-22T05:10:01;27.77;;;17.83;;
73456;SDS011;61691;53.072;6.582;2023-06-22T05:12:29;25.88;;;16.80;;
73456;SDS011;61691;53.072;6.582;2023-06-22T05:14:56;27.88;;;17.38;;
73456;SDS011;61691;53.072;6.582;2023-06-22T05:17:24;25.55;;;17.00;;
73456;SDS011;61691;53.072;6.582;2023-06-22T05:19:51;26.75;;;16.20;;
73456;SDS011;61691;53.072;6.582;2023-06-22T05:22:18;25.48;;;16.00;;
73456;SDS011;61691;53.072;6.582;2023-06-22T05:24:45;25.63;;;15.55;;
73456;SDS011;61691;53.072;6.582;2023-06-22T05:27:12;28.35;;;17.35;;
73456;SDS011;61691;53.072;6.582;2023-06-22T05:29:40;27.73;;;18.33;;
73456;SDS011;61691;53.072;6.582;2023-06-22T05:32:07;27.55;;;18.17;;
73456;SDS011;61691;53.072;6.582;2023-06-22T05:34:34;28.55;;;19.27;;
73456;SDS011;61691;53.072;6.582;2023-06-22T05:37:01;27.65;;;17.77;;
73456;SDS011;61691;53.072;6.582;2023-06-22T05:39:28;27.52;;;18.70;;
73456;SDS011;61691;53.072;6.582;2023-06-22T05:41:55;27.88;;;18.48;;
73456;SDS011;61691;53.072;6.582;2023-06-22T05:44:22;31.08;;;20.50;;
73456;SDS011;61691;53.072;6.582;2023-06-22T05:46:49;28.92;;;18.90;;
73456;SDS011;61691;53.072;6.582;2023-06-22T05:49:16;29.25;;;19.63;;
73456;SDS011;61691;53.072;6.582;2023-06-22T05:51:43;31.02;;;20.77;;
73456;SDS011;61691;53.072;6.582;2023-06-22T05:54:10;28.95;;;19.20;;
73456;SDS011;61691;53.072;6.582;2023-06-22T05:56:40;28.95;;;18.40;;
73456;SDS011;61691;53.072;6.582;2023-06-22T05:59:06;27.95;;;19.20;;
73456;SDS011;61691;53.072;6.582;2023-06-22T06:01:33;29.92;;;17.90;;
73456;SDS011;61691;53.072;6.582;2023-06-22T06:04:02;28.90;;;19.77;;
73456;SDS011;61691;53.072;6.582;2023-06-22T06:06:30;28.23;;;18.15;;
73456;SDS011;61691;53.072;6.582;2023-06-22T06:08:57;26.67;;;16.85;;
73456;SDS011;61691;53.072;6.582;2023-06-22T06:11:26;29.10;;;17.63;;
73456;SDS011;61691;53.072;6.582;2023-06-22T06:13:53;27.73;;;17.05;;
73456;SDS011;61691;53.072;6.582;2023-06-22T06:16:20;26.75;;;16.98;;
73456;SDS011;61691;53.072;6.582;2023-06-22T06:18:47;26.17;;;16.30;;
73456;SDS011;61691;53.072;6.582;2023-06-22T06:21:16;25.77;;;15.43;;
73456;SDS011;61691;53.072;6.582;2023-06-22T06:23:43;25.63;;;15.55;;
73456;SDS011;61691;53.072;6.582;2023-06-22T06:26:09;25.08;;;15.50;;
73456;SDS011;61691;53.072;6.582;2023-06-22T06:28:36;25.45;;;13.70;;
73456;SDS011;61691;53.072;6.582;2023-06-22T06:31:03;24.42;;;12.73;;
73456;SDS011;61691;53.072;6.582;2023-06-22T06:33:33;24.83;;;13.00;;
73456;SDS011;61691;53.072;6.582;2023-06-22T06:36:00;21.13;;;12.07;;
73456;SDS011;61691;53.072;6.582;2023-06-22T06:38:30;21.23;;;11.15;;
73456;SDS011;61691;53.072;6.582;2023-06-22T06:40:58;21.10;;;10.68;;
73456;SDS011;61691;53.072;6.582;2023-06-22T06:43:25;20.23;;;9.23;;
73456;SDS011;61691;53.072;6.582;2023-06-22T06:45:52;19.27;;;8.88;;
73456;SDS011;61691;53.072;6.582;2023-06-22T06:48:19;19.45;;;9.10;;
73456;SDS011;61691;53.072;6.582;2023-06-22T06:50:45;18.63;;;8.82;;
73456;SDS011;61691;53.072;6.582;2023-06-22T06:53:12;20.08;;;9.50;;
73456;SDS011;61691;53.072;6.582;2023-06-22T06:55:39;19.17;;;9.90;;
73456;SDS011;61691;53.072;6.582;2023-06-22T06:58:07;19.45;;;8.73;;
73456;SDS011;61691;53.072;6.582;2023-06-22T07:00:36;22.17;;;9.70;;
73456;SDS011;61691;53.072;6.582;2023-06-22T07:03:03;19.80;;;9.15;;
73456;SDS011;61691;53.072;6.582;2023-06-22T07:05:30;18.85;;;8.57;;
73456;SDS011;61691;53.072;6.582;2023-06-22T07:07:57;18.13;;;8.43;;
73456;SDS011;61691;53.072;6.582;2023-06-22T07:10:24;19.33;;;8.70;;
73456;SDS011;61691;53.072;6.582;2023-06-22T07:12:51;18.73;;;8.20;;
73456;SDS011;61691;53.072;6.582;2023-06-22T07:15:18;17.30;;;7.38;;
73456;SDS011;61691;53.072;6.582;2023-06-22T07:17:44;18.58;;;7.35;;
73456;SDS011;61691;53.072;6.582;2023-06-22T07:20:11;18.73;;;7.65;;
73456;SDS011;61691;53.072;6.582;2023-06-22T07:22:39;17.63;;;7.45;;
73456;SDS011;61691;53.072;6.582;2023-06-22T07:25:07;17.77;;;7.57;;
73456;SDS011;61691;53.072;6.582;2023-06-22T07:28:00;17.05;;;7.13;;
73456;SDS011;61691;53.072;6.582;2023-06-22T07:30:29;17.67;;;7.70;;
73456;SDS011;61691;53.072;6.582;2023-06-22T07:32:57;17.90;;;7.43;;
73456;SDS011;61691;53.072;6.582;2023-06-22T07:35:24;17.80;;;7.38;;
73456;SDS011;61691;53.072;6.582;2023-06-22T07:37:51;17.45;;;6.93;;
73456;SDS011;61691;53.072;6.582;2023-06-22T07:40:18;18.45;;;6.50;;
73456;SDS011;61691;53.072;6.582;2023-06-22T07:42:45;15.50;;;5.03;;
73456;SDS011;61691;53.072;6.582;2023-06-22T07:45:14;16.77;;;5.30;;
73456;SDS011;61691;53.072;6.582;2023-06-22T07:47:41;15.10;;;4.72;;
73456;SDS011;61691;53.072;6.582;2023-06-22T07:50:08;15.30;;;4.53;;
73456;SDS011;61691;53.072;6.582;2023-06-22T07:52:36;15.13;;;4.30;;
73456;SDS011;61691;53.072;6.582;2023-06-22T07:55:03;15.55;;;4.50;;
73456;SDS011;61691;53.072;6.582;2023-06-22T07:57:30;14.95;;;4.70;;
73456;SDS011;61691;53.072;6.582;2023-06-22T08:00:02;15.52;;;4.13;;
73456;SDS011;61691;53.072;6.582;2023-06-22T08:02:40;14.50;;;4.50;;
73456;SDS011;61691;53.072;6.582;2023-06-22T08:05:08;17.50;;;6.72;;
73456;SDS011;61691;53.072;6.582;2023-06-22T08:07:48;16.88;;;6.03;;
73456;SDS011;61691;53.072;6.582;2023-06-22T08:10:16;16.08;;;5.35;;
73456;SDS011;61691;53.072;6.582;2023-06-22T08:12:43;16.90;;;5.90;;
73456;SDS011;61691;53.072;6.582;2023-06-22T08:15:10;15.30;;;5.35;;
73456;SDS011;61691;53.072;6.582;2023-06-22T08:17:37;17.50;;;6.00;;
73456;SDS011;61691;53.072;6.582;2023-06-22T08:20:06;16.02;;;5.10;;
73456;SDS011;61691;53.072;6.582;2023-06-22T08:22:36;17.10;;;5.25;;
73456;SDS011;61691;53.072;6.582;2023-06-22T08:25:03;15.90;;;5.65;;
73456;SDS011;61691;53.072;6.582;2023-06-22T08:27:30;15.85;;;5.20;;
73456;SDS011;61691;53.072;6.582;2023-06-22T08:29:58;16.63;;;5.47;;
73456;SDS011;61691;53.072;6.582;2023-06-22T08:32:29;16.40;;;5.50;;
73456;SDS011;61691;53.072;6.582;2023-06-22T08:34:56;15.82;;;4.82;;
73456;SDS011;61691;53.072;6.582;2023-06-22T08:37:23;17.27;;;5.15;;
73456;SDS011;61691;53.072;6.582;2023-06-22T08:40:00;16.70;;;5.10;;
73456;SDS011;61691;53.072;6.582;2023-06-22T08:42:31;16.85;;;5.00;;
73456;SDS011;61691;53.072;6.582;2023-06-22T08:44:58;15.95;;;5.45;;
73456;SDS011;61691;53.072;6.582;2023-06-22T08:47:27;15.30;;;4.88;;
73456;SDS011;61691;53.072;6.582;2023-06-22T08:49:54;17.77;;;5.90;;
73456;SDS011;61691;53.072;6.582;2023-06-22T08:52:21;18.00;;;5.60;;
73456;SDS011;61691;53.072;6.582;2023-06-22T08:54:49;19.30;;;5.88;;
73456;SDS011;61691;53.072;6.582;2023-06-22T08:57:17;16.90;;;5.20;;
73456;SDS011;61691;53.072;6.582;2023-06-22T08:59:44;18.08;;;6.45;;
73456;SDS011;61691;53.072;6.582;2023-06-22T09:02:11;16.85;;;5.15;;
73456;SDS011;61691;53.072;6.582;2023-06-22T09:04:38;20.58;;;5.82;;
73456;SDS011;61691;53.072;6.582;2023-06-22T09:07:05;16.48;;;4.95;;
73456;SDS011;61691;53.072;6.582;2023-06-22T09:09:32;16.27;;;5.25;;
73456;SDS011;61691;53.072;6.582;2023-06-22T09:11:59;16.08;;;5.50;;
73456;SDS011;61691;53.072;6.582;2023-06-22T09:14:27;17.60;;;5.60;;
73456;SDS011;61691;53.072;6.582;2023-06-22T09:16:53;18.33;;;5.25;;
73456;SDS011;61691;53.072;6.582;2023-06-22T09:19:20;17.70;;;5.40;;
73456;SDS011;61691;53.072;6.582;2023-06-22T09:21:48;20.73;;;5.63;;
73456;SDS011;61691;53.072;6.582;2023-06-22T09:24:14;18.17;;;5.47;;
73456;SDS011;61691;53.072;6.582;2023-06-22T09:26:41;18.42;;;5.68;;
73456;SDS011;61691;53.072;6.582;2023-06-22T09:29:08;17.70;;;5.88;;
73456;SDS011;61691;53.072;6.582;2023-06-22T09:31:35;16.15;;;5.70;;
73456;SDS011;61691;53.072;6.582;2023-06-22T09:34:02;19.77;;;5.30;;
73456;SDS011;61691;53.072;6.582;2023-06-22T09:36:29;17.63;;;5.88;;
73456;SDS011;61691;53.072;6.582;2023-06-22T09:38:56;16.30;;;5.10;;
73456;SDS011;61691;53.072;6.582;2023-06-22T09:41:25;16.42;;;5.43;;
73456;SDS011;61691;53.072;6.582;2023-06-22T09:43:52;17.98;;;5.78;;
73456;SDS011;61691;53.072;6.582;2023-06-22T09:46:22;16.63;;;5.95;;
73456;SDS011;61691;53.072;6.582;2023-06-22T09:48:51;16.55;;;5.85;;
73456;SDS011;61691;53.072;6.582;2023-06-22T09:51:18;17.23;;;5.70;;
73456;SDS011;61691;53.072;6.582;2023-06-22T09:53:47;17.33;;;6.05;;
73456;SDS011;61691;53.072;6.582;2023-06-22T09:56:14;16.80;;;6.00;;
73456;SDS011;61691;53.072;6.582;2023-06-22T09:58:42;17.00;;;5.55;;
73456;SDS011;61691;53.072;6.582;2023-06-22T10:01:09;16.55;;;5.72;;
73456;SDS011;61691;53.072;6.582;2023-06-22T10:03:37;18.05;;;6.00;;
73456;SDS011;61691;53.072;6.582;2023-06-22T10:06:04;17.00;;;5.80;;
73456;SDS011;61691;53.072;6.582;2023-06-22T10:08:31;18.42;;;5.00;;
73456;SDS011;61691;53.072;6.582;2023-06-22T10:10:58;17.77;;;5.25;;
73456;SDS011;61691;53.072;6.582;2023-06-22T10:13:25;17.27;;;6.47;;
73456;SDS011;61691;53.072;6.582;2023-06-22T10:15:52;16.30;;;5.55;;
73456;SDS011;61691;53.072;6.582;2023-06-22T10:18:19;15.98;;;5.10;;
73456;SDS011;61691;53.072;6.582;2023-06-22T10:20:47;15.93;;;5.00;;
73456;SDS011;61691;53.072;6.582;2023-06-22T10:23:17;16.65;;;5.40;;
73456;SDS011;61691;53.072;6.582;2023-06-22T10:25:45;16.27;;;5.00;;
73456;SDS011;61691;53.072;6.582;2023-06-22T10:28:12;16.95;;;5.03;;
73456;SDS011;61691;53.072;6.582;2023-06-22T10:30:39;16.23;;;5.28;;
73456;SDS011;61691;53.072;6.582;2023-06-22T10:33:10;18.02;;;5.00;;
73456;SDS011;61691;53.072;6.582;2023-06-22T10:35:37;16.60;;;5.07;;
73456;SDS011;61691;53.072;6.582;2023-06-22T10:38:05;17.67;;;5.22;;
73456;SDS011;61691;53.072;6.582;2023-06-22T10:40:32;17.98;;;5.40;;
73456;SDS011;61691;53.072;6.582;2023-06-22T10:42:59;15.70;;;4.72;;
73456;SDS011;61691;53.072;6.582;2023-06-22T10:45:26;16.70;;;5.20;;
73456;SDS011;61691;53.072;6.582;2023-06-22T10:47:55;14.40;;;4.55;;
73456;SDS011;61691;53.072;6.582;2023-06-22T10:50:22;15.43;;;5.00;;
73456;SDS011;61691;53.072;6.582;2023-06-22T10:52:50;18.35;;;5.28;;
73456;SDS011;61691;53.072;6.582;2023-06-22T10:55:17;15.27;;;4.57;;
73456;SDS011;61691;53.072;6.582;2023-06-22T10:57:44;16.67;;;4.75;;
73456;SDS011;61691;53.072;6.582;2023-06-22T11:00:14;16.47;;;4.37;;
73456;SDS011;61691;53.072;6.582;2023-06-22T11:02:42;14.20;;;3.92;;
73456;SDS011;61691;53.072;6.582;2023-06-22T11:05:09;14.80;;;4.65;;
73456;SDS011;61691;53.072;6.582;2023-06-22T11:07:37;16.05;;;4.95;;
73456;SDS011;61691;53.072;6.582;2023-06-22T11:10:09;16.23;;;5.32;;
73456;SDS011;61691;53.072;6.582;2023-06-22T11:12:36;15.20;;;4.97;;
73456;SDS011;61691;53.072;6.582;2023-06-22T11:15:03;16.95;;;4.30;;
73456;SDS011;61691;53.072;6.582;2023-06-22T11:17:30;17.77;;;4.75;;
73456;SDS011;61691;53.072;6.582;2023-06-22T11:19:57;15.75;;;5.00;;
73456;SDS011;61691;53.072;6.582;2023-06-22T11:22:25;15.75;;;4.97;;
73456;SDS011;61691;53.072;6.582;2023-06-22T11:24:52;16.17;;;4.45;;
73456;SDS011;61691;53.072;6.582;2023-06-22T11:27:19;16.33;;;5.35;;
73456;SDS011;61691;53.072;6.582;2023-06-22T11:29:46;16.83;;;5.13;;
73456;SDS011;61691;53.072;6.582;2023-06-22T11:32:12;15.05;;;4.60;;
73456;SDS011;61691;53.072;6.582;2023-06-22T11:34:40;16.80;;;4.85;;
73456;SDS011;61691;53.072;6.582;2023-06-22T11:37:07;18.10;;;5.30;;
73456;SDS011;61691;53.072;6.582;2023-06-22T11:39:34;16.15;;;4.35;;
73456;SDS011;61691;53.072;6.582;2023-06-22T11:42:13;16.13;;;3.78;;
73456;SDS011;61691;53.072;6.582;2023-06-22T11:44:40;14.55;;;4.75;;
73456;SDS011;61691;53.072;6.582;2023-06-22T11:47:07;18.17;;;5.18;;
73456;SDS011;61691;53.072;6.582;2023-06-22T11:49:34;17.02;;;4.57;;
73456;SDS011;61691;53.072;6.582;2023-06-22T11:52:01;16.20;;;5.07;;
73456;SDS011;61691;53.072;6.582;2023-06-22T11:54:28;15.23;;;4.75;;
73456;SDS011;61691;53.072;6.582;2023-06-22T11:56:55;15.77;;;4.80;;
73456;SDS011;61691;53.072;6.582;2023-06-22T11:59:22;16.25;;;4.43;;
73456;SDS011;61691;53.072;6.582;2023-06-22T12:01:48;17.88;;;5.20;;
73456;SDS011;61691;53.072;6.582;2023-06-22T12:04:17;16.05;;;4.80;;
73456;SDS011;61691;53.072;6.582;2023-06-22T12:06:44;14.55;;;4.55;;
73456;SDS011;61691;53.072;6.582;2023-06-22T12:09:11;15.90;;;5.43;;
73456;SDS011;61691;53.072;6.582;2023-06-22T12:11:40;17.02;;;5.18;;
73456;SDS011;61691;53.072;6.582;2023-06-22T12:14:07;16.15;;;5.45;;
73456;SDS011;61691;53.072;6.582;2023-06-22T12:16:34;15.35;;;3.90;;
73456;SDS011;61691;53.072;6.582;2023-06-22T12:19:00;14.55;;;3.55;;
73456;SDS011;61691;53.072;6.582;2023-06-22T12:21:27;15.55;;;4.43;;
73456;SDS011;61691;53.072;6.582;2023-06-22T12:23:55;15.70;;;4.35;;
73456;SDS011;61691;53.072;6.582;2023-06-22T12:26:22;16.60;;;4.55;;
73456;SDS011;61691;53.072;6.582;2023-06-22T12:28:49;14.68;;;4.22;;
73456;SDS011;61691;53.072;6.582;2023-06-22T12:31:16;15.73;;;4.30;;
73456;SDS011;61691;53.072;6.582;2023-06-22T12:33:43;15.50;;;4.22;;
73456;SDS011;61691;53.072;6.582;2023-06-22T12:36:10;14.85;;;3.90;;
73456;SDS011;61691;53.072;6.582;2023-06-22T12:38:37;16.45;;;4.40;;
73456;SDS011;61691;53.072;6.582;2023-06-22T12:41:03;16.88;;;4.43;;
73456;SDS011;61691;53.072;6.582;2023-06-22T12:43:30;14.02;;;3.85;;
73456;SDS011;61691;53.072;6.582;2023-06-22T12:45:57;13.00;;;3.70;;
73456;SDS011;61691;53.072;6.582;2023-06-22T12:48:25;15.85;;;3.88;;
73456;SDS011;61691;53.072;6.582;2023-06-22T12:50:52;15.85;;;4.60;;
73456;SDS011;61691;53.072;6.582;2023-06-22T12:53:21;15.50;;;5.00;;
73456;SDS011;61691;53.072;6.582;2023-06-22T12:55:50;15.60;;;4.60;;
73456;SDS011;61691;53.072;6.582;2023-06-22T12:58:16;17.33;;;5.68;;
73456;SDS011;61691;53.072;6.582;2023-06-22T13:00:43;16.45;;;5.53;;
73456;SDS011;61691;53.072;6.582;2023-06-22T13:03:10;16.42;;;5.30;;
73456;SDS011;61691;53.072;6.582;2023-06-22T13:05:37;16.33;;;5.60;;
73456;SDS011;61691;53.072;6.582;2023-06-22T13:08:04;16.02;;;5.90;;
73456;SDS011;61691;53.072;6.582;2023-06-22T13:10:31;16.58;;;5.50;;
73456;SDS011;61691;53.072;6.582;2023-06-22T13:12:59;17.58;;;5.65;;
73456;SDS011;61691;53.072;6.582;2023-06-22T13:15:27;17.77;;;6.18;;
73456;SDS011;61691;53.072;6.582;2023-06-22T13:17:55;16.40;;;5.43;;
73456;SDS011;61691;53.072;6.582;2023-06-22T13:20:22;16.92;;;5.85;;
73456;SDS011;61691;53.072;6.582;2023-06-22T13:22:49;18.35;;;5.63;;
73456;SDS011;61691;53.072;6.582;2023-06-22T13:25:16;17.75;;;6.45;;
73456;SDS011;61691;53.072;6.582;2023-06-22T13:27:45;15.82;;;5.75;;
73456;SDS011;61691;53.072;6.582;2023-06-22T13:30:12;17.10;;;6.32;;
73456;SDS011;61691;53.072;6.582;2023-06-22T13:32:40;17.92;;;5.78;;
73456;SDS011;61691;53.072;6.582;2023-06-22T13:35:09;19.98;;;6.90;;
73456;SDS011;61691;53.072;6.582;2023-06-22T13:37:36;18.67;;;6.40;;
73456;SDS011;61691;53.072;6.582;2023-06-22T13:40:04;19.35;;;7.05;;
73456;SDS011;61691;53.072;6.582;2023-06-22T13:42:33;17.57;;;5.97;;
73456;SDS011;61691;53.072;6.582;2023-06-22T13:44:59;17.92;;;6.65;;
73456;SDS011;61691;53.072;6.582;2023-06-22T13:47:27;18.02;;;6.75;;
73456;SDS011;61691;53.072;6.582;2023-06-22T13:49:56;18.05;;;6.78;;
73456;SDS011;61691;53.072;6.582;2023-06-22T13:52:24;20.25;;;6.40;;
73456;SDS011;61691;53.072;6.582;2023-06-22T13:54:51;17.45;;;6.53;;
73456;SDS011;61691;53.072;6.582;2023-06-22T13:57:18;17.15;;;6.47;;
73456;SDS011;61691;53.072;6.582;2023-06-22T13:59:44;19.73;;;6.15;;
73456;SDS011;61691;53.072;6.582;2023-06-22T14:02:11;18.08;;;6.20;;
73456;SDS011;61691;53.072;6.582;2023-06-22T14:04:38;16.10;;;5.82;;
73456;SDS011;61691;53.072;6.582;2023-06-22T14:07:05;17.92;;;6.13;;
73456;SDS011;61691;53.072;6.582;2023-06-22T14:09:32;18.23;;;5.90;;
73456;SDS011;61691;53.072;6.582;2023-06-22T14:12:02;16.13;;;5.50;;
73456;SDS011;61691;53.072;6.582;2023-06-22T14:14:30;15.45;;;5.30;;
73456;SDS011;61691;53.072;6.582;2023-06-22T14:16:57;19.35;;;5.47;;
73456;SDS011;61691;53.072;6.582;2023-06-22T14:19:24;16.20;;;5.28;;
73456;SDS011;61691;53.072;6.582;2023-06-22T14:21:51;18.55;;;5.53;;
73456;SDS011;61691;53.072;6.582;2023-06-22T14:24:18;16.67;;;5.20;;
73456;SDS011;61691;53.072;6.582;2023-06-22T14:26:46;16.58;;;4.70;;
73456;SDS011;61691;53.072;6.582;2023-06-22T14:29:13;15.90;;;5.30;;
73456;SDS011;61691;53.072;6.582;2023-06-22T14:31:45;15.95;;;5.47;;
73456;SDS011;61691;53.072;6.582;2023-06-22T14:34:13;18.60;;;5.28;;
73456;SDS011;61691;53.072;6.582;2023-06-22T14:36:40;17.83;;;4.47;;
73456;SDS011;61691;53.072;6.582;2023-06-22T14:39:06;14.82;;;4.55;;
73456;SDS011;61691;53.072;6.582;2023-06-22T14:41:33;15.43;;;5.30;;
73456;SDS011;61691;53.072;6.582;2023-06-22T14:44:00;14.77;;;4.15;;
73456;SDS011;61691;53.072;6.582;2023-06-22T14:46:27;16.30;;;4.57;;